Naples, Illinois
Current Conditions -  °F | °C
As of 8:35 AM on Friday 28 Nov 2014 (Local Time) from KPPQ Reporting Station
NA  
Wind Chill: 18°   Ceiling: NA
Heat Index: 28°   Visibility: NA
Dew Point: 25°   Wind: 12mph
Humidity: 87%   Direction: 150°SSE
Pressure: 30.14"   Gusts: NA
Location:  39.7431°N, 90.5444°W
Report Text: KPPQ 281435Z AUTO 15010KT M02/M04 A3014 RMK AO2 T10221041 PWINO
Loading
Personal Weather Stations






























Interactive Weather Map New forecast layout! Learn more

10-Day Weather Forecast

Advertisements
Track Severe Weather on mobile